Главная страница
METAR-TAF:

METAR-TAF

Аэропорты :

Могилёв, Белоруссия

широта: 53-57-18N, долгота: 030-05-42E, высота над уровнем моря: 194 м

Текущие метеонаблюдения

Эта сводка был подготовлена 11 часа и 55 минут назад, в 15:00 UTC
Ветер 10 Узел от южный
Температура 25°C
Влажность 57%
Давление 1013 hPa
Видимость 10 км и более
Отдельные облака на высоте 4000 фута
Рассеянная облачность

METAR: UMOO 201500Z 17005MPS 9999 SCT040 BKN/// 25/16 Q1013 R13/CLRD// NOSIG

Время: 05:55 (02:55 UTC)

Прогноз

Эта сводка был подготовлена 12 часа и 55 минут назад, в 14:00 UTC
Прогноз действительный с 20-го 15 UTC до 20-го 24 UTC
Ветер 10 Узел от южный
Видимость 10 км и более
Рассеянная облачность на высоте 2000 фута
временами
С 20-го 15 UTC до 20-го 21 UTC
Ветер 14 Узел от юго-западный
временами
С 20-го 21 UTC до 20-го 24 UTC
Видимость: 3000 м
Рассеянная облачность на высоте 1000 фута
дымка

TAF: UMOO 201400Z 2015/2024 19005MPS 9999 BKN020 TEMPO 2015/2021 23007MPS TEMPO 2021/2024 3000 BR BKN010

Метеонаблюдения и прогнозы для более 4000 аэропортов (сводки METAR и TAF).

Имеющиеся станции представлены на карте желтыми и красными точками.

Чтобы увидеть название станции, наведите на нее мышь.

Затем щелкните, чтобы увидеть метеонаблюдения и метеопрогнозы.

Управление картой: чтобы увеличить масштаб, щелкните зеленые кнопки с черным крестиком; чтобы уменьшить масштаб, щелкните зеленую кнопку с тире; для просмотра соседних карт щелкайте зеленые стрелки.


METAR-TAF: